sensor_id;sensor_type;location;lat;lon;timestamp;pressure;altitude;pressure_sealevel;temperature;humidity
37066;BME280;22981;43.080;25.550;2023-04-10T00:00:59;99834.75;;;8.19;65.33
37066;BME280;22981;43.080;25.550;2023-04-10T00:03:27;99833.80;;;8.16;65.45
37066;BME280;22981;43.080;25.550;2023-04-10T00:05:55;99827.11;;;8.10;65.61
37066;BME280;22981;43.080;25.550;2023-04-10T00:08:23;99829.56;;;8.11;65.61
37066;BME280;22981;43.080;25.550;2023-04-10T00:10:51;99832.54;;;8.12;65.60
37066;BME280;22981;43.080;25.550;2023-04-10T00:13:19;99827.52;;;8.13;65.53
37066;BME280;22981;43.080;25.550;2023-04-10T00:15:47;99824.03;;;8.13;65.52
37066;BME280;22981;43.080;25.550;2023-04-10T00:18:16;99824.92;;;8.09;65.58
37066;BME280;22981;43.080;25.550;2023-04-10T00:20:43;99820.89;;;8.02;65.67
37066;BME280;22981;43.080;25.550;2023-04-10T00:23:11;99817.17;;;7.97;65.80
37066;BME280;22981;43.080;25.550;2023-04-10T00:25:38;99816.28;;;7.90;66.00
37066;BME280;22981;43.080;25.550;2023-04-10T00:28:06;99812.87;;;7.85;66.08
37066;BME280;22981;43.080;25.550;2023-04-10T00:30:34;99812.05;;;7.85;66.08
37066;BME280;22981;43.080;25.550;2023-04-10T00:33:01;99812.12;;;7.81;66.08
37066;BME280;22981;43.080;25.550;2023-04-10T00:35:29;99813.31;;;7.78;66.09
37066;BME280;22981;43.080;25.550;2023-04-10T00:37:57;99811.98;;;7.78;65.97
37066;BME280;22981;43.080;25.550;2023-04-10T00:40:24;99807.23;;;7.73;66.01
37066;BME280;22981;43.080;25.550;2023-04-10T00:42:52;99806.98;;;7.68;66.07
37066;BME280;22981;43.080;25.550;2023-04-10T00:45:20;99802.92;;;7.62;66.17
37066;BME280;22981;43.080;25.550;2023-04-10T00:47:47;99799.46;;;7.50;66.37
37066;BME280;22981;43.080;25.550;2023-04-10T00:50:15;99806.62;;;7.39;66.60
37066;BME280;22981;43.080;25.550;2023-04-10T00:52:43;99802.64;;;7.28;66.77
37066;BME280;22981;43.080;25.550;2023-04-10T00:55:11;99798.36;;;7.23;66.92
37066;BME280;22981;43.080;25.550;2023-04-10T00:57:44;99796.41;;;7.21;66.95
37066;BME280;22981;43.080;25.550;2023-04-10T01:00:12;99799.08;;;7.21;66.94
37066;BME280;22981;43.080;25.550;2023-04-10T01:02:40;99788.42;;;7.21;66.77
37066;BME280;22981;43.080;25.550;2023-04-10T01:05:09;99798.77;;;7.20;66.60
37066;BME280;22981;43.080;25.550;2023-04-10T01:10:47;99790.39;;;7.13;66.77
37066;BME280;22981;43.080;25.550;2023-04-10T01:13:24;99795.91;;;7.11;66.73
37066;BME280;22981;43.080;25.550;2023-04-10T01:19:38;99790.00;;;7.05;66.65
37066;BME280;22981;43.080;25.550;2023-04-10T01:21:15;99787.39;;;7.01;66.69
37066;BME280;22981;43.080;25.550;2023-04-10T01:27:07;99787.14;;;6.96;66.83
37066;BME280;22981;43.080;25.550;2023-04-10T01:29:33;99791.19;;;6.92;66.79
37066;BME280;22981;43.080;25.550;2023-04-10T01:32:16;99786.57;;;6.90;66.74
37066;BME280;22981;43.080;25.550;2023-04-10T01:34:42;99789.59;;;6.87;66.84
37066;BME280;22981;43.080;25.550;2023-04-10T01:37:16;99787.30;;;6.84;66.87
37066;BME280;22981;43.080;25.550;2023-04-10T01:39:41;99795.54;;;6.78;66.99
37066;BME280;22981;43.080;25.550;2023-04-10T01:42:11;99796.09;;;6.73;67.11
37066;BME280;22981;43.080;25.550;2023-04-10T01:44:41;99793.61;;;6.72;67.11
37066;BME280;22981;43.080;25.550;2023-04-10T01:47:13;99797.48;;;6.69;67.13
37066;BME280;22981;43.080;25.550;2023-04-10T01:49:45;99798.98;;;6.68;67.13
37066;BME280;22981;43.080;25.550;2023-04-10T01:52:14;99794.36;;;6.66;67.15
37066;BME280;22981;43.080;25.550;2023-04-10T01:54:42;99790.42;;;6.62;67.17
37066;BME280;22981;43.080;25.550;2023-04-10T01:57:12;99794.16;;;6.57;67.24
37066;BME280;22981;43.080;25.550;2023-04-10T01:59:40;99800.97;;;6.55;67.29
37066;BME280;22981;43.080;25.550;2023-04-10T02:02:09;99795.73;;;6.51;67.32
37066;BME280;22981;43.080;25.550;2023-04-10T02:04:37;99794.76;;;6.48;67.31
37066;BME280;22981;43.080;25.550;2023-04-10T02:10:08;99791.64;;;6.44;67.39
37066;BME280;22981;43.080;25.550;2023-04-10T02:12:51;99790.05;;;6.39;67.41
37066;BME280;22981;43.080;25.550;2023-04-10T02:15:17;99790.25;;;6.34;67.48
37066;BME280;22981;43.080;25.550;2023-04-10T02:17:46;99789.63;;;6.32;67.44
37066;BME280;22981;43.080;25.550;2023-04-10T02:20:14;99794.48;;;6.28;67.48
37066;BME280;22981;43.080;25.550;2023-04-10T02:22:44;99793.81;;;6.30;67.44
37066;BME280;22981;43.080;25.550;2023-04-10T02:25:12;99791.16;;;6.30;67.38
37066;BME280;22981;43.080;25.550;2023-04-10T02:27:40;99792.14;;;6.29;67.35
37066;BME280;22981;43.080;25.550;2023-04-10T02:30:08;99789.09;;;6.21;67.36
37066;BME280;22981;43.080;25.550;2023-04-10T02:32:36;99791.64;;;6.15;67.45
37066;BME280;22981;43.080;25.550;2023-04-10T02:35:03;99789.89;;;6.07;67.52
37066;BME280;22981;43.080;25.550;2023-04-10T02:37:31;99799.19;;;5.92;67.67
37066;BME280;22981;43.080;25.550;2023-04-10T02:40:00;99797.24;;;5.82;67.99
37066;BME280;22981;43.080;25.550;2023-04-10T02:42:27;99797.59;;;5.83;68.08
37066;BME280;22981;43.080;25.550;2023-04-10T02:44:55;99794.90;;;5.87;68.00
37066;BME280;22981;43.080;25.550;2023-04-10T02:47:23;99797.05;;;5.88;67.90
37066;BME280;22981;43.080;25.550;2023-04-10T02:49:50;99797.63;;;5.79;68.03
37066;BME280;22981;43.080;25.550;2023-04-10T02:52:18;99796.14;;;5.76;68.15
37066;BME280;22981;43.080;25.550;2023-04-10T02:54:45;99794.78;;;5.81;68.15
37066;BME280;22981;43.080;25.550;2023-04-10T02:57:13;99794.94;;;5.83;68.09
37066;BME280;22981;43.080;25.550;2023-04-10T02:59:41;99794.75;;;5.85;68.11
37066;BME280;22981;43.080;25.550;2023-04-10T03:02:08;99800.21;;;5.87;68.06
37066;BME280;22981;43.080;25.550;2023-04-10T03:04:36;99801.86;;;5.88;68.00
37066;BME280;22981;43.080;25.550;2023-04-10T03:07:04;99802.20;;;5.85;67.98
37066;BME280;22981;43.080;25.550;2023-04-10T03:09:31;99807.24;;;5.80;68.02
37066;BME280;22981;43.080;25.550;2023-04-10T03:11:59;99801.77;;;5.77;68.07
37066;BME280;22981;43.080;25.550;2023-04-10T03:14:27;99801.14;;;5.75;68.19
37066;BME280;22981;43.080;25.550;2023-04-10T03:16:55;99805.98;;;5.72;68.25
37066;BME280;22981;43.080;25.550;2023-04-10T03:19:22;99803.44;;;5.60;68.41
37066;BME280;22981;43.080;25.550;2023-04-10T03:21:52;99812.13;;;5.53;68.61
37066;BME280;22981;43.080;25.550;2023-04-10T03:24:19;99813.30;;;5.51;68.83
37066;BME280;22981;43.080;25.550;2023-04-10T03:26:47;99810.11;;;5.56;68.92
37066;BME280;22981;43.080;25.550;2023-04-10T03:29:14;99809.72;;;5.63;68.87
37066;BME280;22981;43.080;25.550;2023-04-10T03:31:43;99810.32;;;5.69;68.77
37066;BME280;22981;43.080;25.550;2023-04-10T03:34:11;99810.98;;;5.71;68.74
37066;BME280;22981;43.080;25.550;2023-04-10T03:36:39;99811.14;;;5.69;68.73
37066;BME280;22981;43.080;25.550;2023-04-10T03:39:07;99813.70;;;5.63;68.78
37066;BME280;22981;43.080;25.550;2023-04-10T03:41:34;99821.39;;;5.58;68.80
37066;BME280;22981;43.080;25.550;2023-04-10T03:44:02;99819.72;;;5.57;68.86
37066;BME280;22981;43.080;25.550;2023-04-10T03:46:30;99818.07;;;5.56;68.80
37066;BME280;22981;43.080;25.550;2023-04-10T03:48:58;99818.77;;;5.53;68.87
37066;BME280;22981;43.080;25.550;2023-04-10T03:51:25;99820.41;;;5.55;68.79
37066;BME280;22981;43.080;25.550;2023-04-10T03:53:53;99821.42;;;5.53;68.75
37066;BME280;22981;43.080;25.550;2023-04-10T03:56:21;99822.09;;;5.51;68.79
37066;BME280;22981;43.080;25.550;2023-04-10T03:58:48;99818.07;;;5.56;68.75
37066;BME280;22981;43.080;25.550;2023-04-10T04:01:16;99827.52;;;5.58;68.67
37066;BME280;22981;43.080;25.550;2023-04-10T04:03:43;99828.00;;;5.62;68.61
37066;BME280;22981;43.080;25.550;2023-04-10T04:06:11;99824.99;;;5.61;68.53
37066;BME280;22981;43.080;25.550;2023-04-10T04:08:39;99821.39;;;5.58;68.62
37066;BME280;22981;43.080;25.550;2023-04-10T04:11:06;99822.88;;;5.56;68.71
37066;BME280;22981;43.080;25.550;2023-04-10T04:13:34;99830.34;;;5.57;68.70
37066;BME280;22981;43.080;25.550;2023-04-10T04:16:01;99827.52;;;5.58;68.83
37066;BME280;22981;43.080;25.550;2023-04-10T04:18:29;99827.52;;;5.58;68.77
37066;BME280;22981;43.080;25.550;2023-04-10T04:20:56;99827.69;;;5.57;68.87
37066;BME280;22981;43.080;25.550;2023-04-10T04:23:24;99827.69;;;5.57;68.96
37066;BME280;22981;43.080;25.550;2023-04-10T04:25:51;99829.48;;;5.60;68.95
37066;BME280;22981;43.080;25.550;2023-04-10T04:28:22;99828.78;;;5.66;68.90
37066;BME280;22981;43.080;25.550;2023-04-10T04:30:49;99824.42;;;5.69;68.73
37066;BME280;22981;43.080;25.550;2023-04-10T04:33:17;99827.94;;;5.70;68.64
37066;BME280;22981;43.080;25.550;2023-04-10T04:35:44;99827.08;;;5.69;68.76
37066;BME280;22981;43.080;25.550;2023-04-10T04:38:12;99831.57;;;5.69;68.82
37066;BME280;22981;43.080;25.550;2023-04-10T04:40:41;99840.05;;;5.68;68.99
37066;BME280;22981;43.080;25.550;2023-04-10T04:43:09;99839.00;;;5.73;69.00
37066;BME280;22981;43.080;25.550;2023-04-10T04:45:36;99832.16;;;5.79;68.97
37066;BME280;22981;43.080;25.550;2023-04-10T04:48:04;99832.22;;;5.90;68.90
37066;BME280;22981;43.080;25.550;2023-04-10T04:50:31;99834.61;;;6.03;68.83
37066;BME280;22981;43.080;25.550;2023-04-10T04:52:59;99833.55;;;6.13;68.75
37066;BME280;22981;43.080;25.550;2023-04-10T04:55:27;99830.19;;;6.15;68.75
37066;BME280;22981;43.080;25.550;2023-04-10T04:57:54;99831.63;;;6.21;68.70
37066;BME280;22981;43.080;25.550;2023-04-10T05:00:22;99832.91;;;6.25;68.64
37066;BME280;22981;43.080;25.550;2023-04-10T05:02:49;99841.98;;;6.31;68.59
37066;BME280;22981;43.080;25.550;2023-04-10T05:05:17;99839.75;;;6.39;68.58
37066;BME280;22981;43.080;25.550;2023-04-10T05:07:45;99837.16;;;6.45;68.34
37066;BME280;22981;43.080;25.550;2023-04-10T05:10:12;99839.47;;;6.48;68.27
37066;BME280;22981;43.080;25.550;2023-04-10T05:12:40;99831.70;;;6.58;68.33
37066;BME280;22981;43.080;25.550;2023-04-10T05:15:08;99832.84;;;6.74;68.32
37066;BME280;22981;43.080;25.550;2023-04-10T05:17:36;99837.55;;;6.83;68.17
37066;BME280;22981;43.080;25.550;2023-04-10T05:20:04;99838.52;;;6.86;68.19
37066;BME280;22981;43.080;25.550;2023-04-10T05:22:32;99836.18;;;6.97;68.12
37066;BME280;22981;43.080;25.550;2023-04-10T05:24:59;99836.47;;;7.13;67.86
37066;BME280;22981;43.080;25.550;2023-04-10T05:27:27;99841.23;;;7.18;67.64
37066;BME280;22981;43.080;25.550;2023-04-10T05:29:55;99842.30;;;7.13;67.69
37066;BME280;22981;43.080;25.550;2023-04-10T05:32:23;99843.89;;;7.18;67.81
37066;BME280;22981;43.080;25.550;2023-04-10T05:34:50;99846.08;;;7.29;67.73
37066;BME280;22981;43.080;25.550;2023-04-10T05:37:18;99847.45;;;7.36;67.54
37066;BME280;22981;43.080;25.550;2023-04-10T05:39:45;99842.26;;;7.49;67.52
37066;BME280;22981;43.080;25.550;2023-04-10T05:42:13;99844.74;;;7.72;67.29
37066;BME280;22981;43.080;25.550;2023-04-10T05:44:43;99847.18;;;7.95;67.03
37066;BME280;22981;43.080;25.550;2023-04-10T05:47:10;99840.84;;;8.13;66.74
37066;BME280;22981;43.080;25.550;2023-04-10T05:49:38;99842.30;;;8.26;66.59
37066;BME280;22981;43.080;25.550;2023-04-10T05:52:06;99843.86;;;8.32;66.53
37066;BME280;22981;43.080;25.550;2023-04-10T05:54:33;99840.30;;;8.35;66.59
37066;BME280;22981;43.080;25.550;2023-04-10T05:57:01;99845.38;;;8.30;66.57
37066;BME280;22981;43.080;25.550;2023-04-10T05:59:28;99843.63;;;8.26;66.73
37066;BME280;22981;43.080;25.550;2023-04-10T06:01:56;99842.45;;;8.18;66.83
37066;BME280;22981;43.080;25.550;2023-04-10T06:04:24;99841.49;;;8.15;67.09
37066;BME280;22981;43.080;25.550;2023-04-10T06:06:51;99840.39;;;8.20;67.17
37066;BME280;22981;43.080;25.550;2023-04-10T06:09:19;99841.50;;;8.33;67.06
37066;BME280;22981;43.080;25.550;2023-04-10T06:11:46;99836.48;;;8.44;66.88
37066;BME280;22981;43.080;25.550;2023-04-10T06:14:14;99832.94;;;8.55;66.79
37066;BME280;22981;43.080;25.550;2023-04-10T06:16:42;99828.90;;;8.65;66.86
37066;BME280;22981;43.080;25.550;2023-04-10T06:19:09;99828.23;;;8.81;66.83
37066;BME280;22981;43.080;25.550;2023-04-10T06:21:37;99829.73;;;8.96;66.72
37066;BME280;22981;43.080;25.550;2023-04-10T06:24:04;99829.56;;;9.05;66.67
37066;BME280;22981;43.080;25.550;2023-04-10T06:26:33;99827.02;;;9.14;66.66
37066;BME280;22981;43.080;25.550;2023-04-10T06:29:00;99826.84;;;9.22;66.60
37066;BME280;22981;43.080;25.550;2023-04-10T06:31:29;99825.41;;;9.33;66.60
37066;BME280;22981;43.080;25.550;2023-04-10T06:33:57;99825.52;;;9.42;66.59
37066;BME280;22981;43.080;25.550;2023-04-10T06:36:24;99825.84;;;9.49;66.63
37066;BME280;22981;43.080;25.550;2023-04-10T06:38:53;99826.05;;;9.54;66.53
37066;BME280;22981;43.080;25.550;2023-04-10T06:41:20;99821.03;;;9.62;66.39
37066;BME280;22981;43.080;25.550;2023-04-10T06:43:48;99814.97;;;9.71;66.37
37066;BME280;22981;43.080;25.550;2023-04-10T06:46:15;99818.69;;;9.76;66.16
37066;BME280;22981;43.080;25.550;2023-04-10T06:48:43;99820.31;;;9.84;66.15
37066;BME280;22981;43.080;25.550;2023-04-10T06:51:11;99819.19;;;9.96;65.99
37066;BME280;22981;43.080;25.550;2023-04-10T06:53:38;99821.44;;;10.12;65.78
37066;BME280;22981;43.080;25.550;2023-04-10T06:56:06;99824.02;;;10.30;65.61
37066;BME280;22981;43.080;25.550;2023-04-10T06:58:33;99821.60;;;10.50;65.39
37066;BME280;22981;43.080;25.550;2023-04-10T07:01:01;99827.02;;;10.66;64.94
37066;BME280;22981;43.080;25.550;2023-04-10T07:03:30;99832.10;;;10.81;64.66
37066;BME280;22981;43.080;25.550;2023-04-10T07:05:59;99826.69;;;10.94;64.40
37066;BME280;22981;43.080;25.550;2023-04-10T07:08:28;99826.63;;;11.08;63.48
37066;BME280;22981;43.080;25.550;2023-04-10T07:10:56;99828.94;;;11.20;62.61
37066;BME280;22981;43.080;25.550;2023-04-10T07:13:23;99824.77;;;11.31;61.68
37066;BME280;22981;43.080;25.550;2023-04-10T07:15:51;99832.72;;;11.44;60.75
37066;BME280;22981;43.080;25.550;2023-04-10T07:18:18;99831.61;;;11.51;60.26
37066;BME280;22981;43.080;25.550;2023-04-10T07:20:46;99831.45;;;11.62;59.92
37066;BME280;22981;43.080;25.550;2023-04-10T07:23:13;99831.61;;;11.67;59.61
37066;BME280;22981;43.080;25.550;2023-04-10T07:25:42;99823.01;;;11.74;59.32
37066;BME280;22981;43.080;25.550;2023-04-10T07:28:09;99828.20;;;11.85;58.97
37066;BME280;22981;43.080;25.550;2023-04-10T07:30:37;99823.05;;;11.99;58.49
37066;BME280;22981;43.080;25.550;2023-04-10T07:33:04;99825.94;;;12.07;58.31
37066;BME280;22981;43.080;25.550;2023-04-10T07:35:32;99823.94;;;12.12;57.83
37066;BME280;22981;43.080;25.550;2023-04-10T07:38:00;99826.33;;;12.11;57.80
37066;BME280;22981;43.080;25.550;2023-04-10T07:40:27;99824.92;;;12.08;57.72
37066;BME280;22981;43.080;25.550;2023-04-10T07:42:55;99821.56;;;12.03;57.67
37066;BME280;22981;43.080;25.550;2023-04-10T07:45:22;99820.13;;;12.01;57.58
37066;BME280;22981;43.080;25.550;2023-04-10T07:47:50;99821.77;;;12.02;57.48
37066;BME280;22981;43.080;25.550;2023-04-10T07:50:17;99821.56;;;12.03;57.25
37066;BME280;22981;43.080;25.550;2023-04-10T07:52:45;99813.38;;;12.08;56.70
37066;BME280;22981;43.080;25.550;2023-04-10T07:55:13;99819.33;;;12.10;56.51
37066;BME280;22981;43.080;25.550;2023-04-10T07:57:41;99815.06;;;12.11;56.57
37066;BME280;22981;43.080;25.550;2023-04-10T08:00:09;99810.16;;;12.08;56.50
37066;BME280;22981;43.080;25.550;2023-04-10T08:02:37;99812.47;;;12.05;56.25
37066;BME280;22981;43.080;25.550;2023-04-10T08:05:06;99811.51;;;12.08;56.31
37066;BME280;22981;43.080;25.550;2023-04-10T08:07:34;99805.24;;;12.14;56.21
37066;BME280;22981;43.080;25.550;2023-04-10T08:10:03;99814.64;;;12.14;56.03
37066;BME280;22981;43.080;25.550;2023-04-10T08:12:33;99814.05;;;12.12;56.08
37066;BME280;22981;43.080;25.550;2023-04-10T08:15:00;99812.91;;;12.11;55.82
37066;BME280;22981;43.080;25.550;2023-04-10T08:17:28;99813.00;;;12.13;55.71
37066;BME280;22981;43.080;25.550;2023-04-10T08:19:56;99810.99;;;12.18;55.71
37066;BME280;22981;43.080;25.550;2023-04-10T08:22:23;99808.60;;;12.19;55.79
37066;BME280;22981;43.080;25.550;2023-04-10T08:24:51;99810.17;;;12.17;55.78
37066;BME280;22981;43.080;25.550;2023-04-10T08:27:18;99813.67;;;12.18;55.94
37066;BME280;22981;43.080;25.550;2023-04-10T08:29:46;99809.71;;;12.20;55.94
37066;BME280;22981;43.080;25.550;2023-04-10T08:32:13;99808.75;;;12.24;55.64
37066;BME280;22981;43.080;25.550;2023-04-10T08:34:41;99804.30;;;12.36;55.65
37066;BME280;22981;43.080;25.550;2023-04-10T08:37:10;99794.08;;;12.72;55.34
37066;BME280;22981;43.080;25.550;2023-04-10T08:39:39;99793.21;;;12.99;54.83
37066;BME280;22981;43.080;25.550;2023-04-10T08:42:07;99784.88;;;13.10;54.42
37066;BME280;22981;43.080;25.550;2023-04-10T08:44:35;99784.72;;;13.14;54.20
37066;BME280;22981;43.080;25.550;2023-04-10T08:47:05;99777.84;;;13.18;54.09
37066;BME280;22981;43.080;25.550;2023-04-10T08:49:48;99774.02;;;13.35;53.91
37066;BME280;22981;43.080;25.550;2023-04-10T08:52:19;99764.00;;;13.66;53.64
37066;BME280;22981;43.080;25.550;2023-04-10T08:54:49;99756.59;;;13.82;53.31
37066;BME280;22981;43.080;25.550;2023-04-10T08:57:16;99759.47;;;13.90;52.96
37066;BME280;22981;43.080;25.550;2023-04-10T08:59:46;99764.85;;;13.90;52.91
37066;BME280;22981;43.080;25.550;2023-04-10T09:02:14;99752.98;;;13.88;52.95
37066;BME280;22981;43.080;25.550;2023-04-10T09:04:45;99756.70;;;13.87;53.11
37066;BME280;22981;43.080;25.550;2023-04-10T09:07:12;99746.11;;;13.83;52.76
37066;BME280;22981;43.080;25.550;2023-04-10T09:09:40;99750.39;;;13.82;52.37
37066;BME280;22981;43.080;25.550;2023-04-10T09:12:08;99743.39;;;13.92;52.27
37066;BME280;22981;43.080;25.550;2023-04-10T09:14:36;99735.25;;;14.01;52.18
37066;BME280;22981;43.080;25.550;2023-04-10T09:17:23;99729.02;;;14.13;51.80
37066;BME280;22981;43.080;25.550;2023-04-10T09:19:53;99721.11;;;14.20;51.60
37066;BME280;22981;43.080;25.550;2023-04-10T09:22:34;99724.61;;;14.21;51.89
37066;BME280;22981;43.080;25.550;2023-04-10T09:25:03;99723.62;;;14.13;52.17
37066;BME280;22981;43.080;25.550;2023-04-10T09:27:35;99715.59;;;14.01;51.97
37066;BME280;22981;43.080;25.550;2023-04-10T09:30:05;99718.14;;;13.96;52.17
37066;BME280;22981;43.080;25.550;2023-04-10T09:32:39;99718.53;;;13.88;52.30
37066;BME280;22981;43.080;25.550;2023-04-10T09:35:08;99715.17;;;13.95;52.46
37066;BME280;22981;43.080;25.550;2023-04-10T09:37:36;99705.91;;;14.14;52.27
37066;BME280;22981;43.080;25.550;2023-04-10T09:40:04;99714.97;;;14.22;52.15
37066;BME280;22981;43.080;25.550;2023-04-10T09:42:34;99705.77;;;14.21;52.03
37066;BME280;22981;43.080;25.550;2023-04-10T09:45:03;99706.48;;;14.16;51.88
37066;BME280;22981;43.080;25.550;2023-04-10T09:47:32;99697.55;;;14.13;51.86
37066;BME280;22981;43.080;25.550;2023-04-10T09:50:00;99696.70;;;14.13;52.04
37066;BME280;22981;43.080;25.550;2023-04-10T09:52:29;99689.20;;;14.26;51.99
37066;BME280;22981;43.080;25.550;2023-04-10T09:55:02;99690.81;;;14.39;51.58
37066;BME280;22981;43.080;25.550;2023-04-10T09:57:32;99686.23;;;14.40;51.49
37066;BME280;22981;43.080;25.550;2023-04-10T10:00:05;99679.88;;;14.32;51.28
37066;BME280;22981;43.080;25.550;2023-04-10T10:02:34;99685.82;;;14.19;51.63
37066;BME280;22981;43.080;25.550;2023-04-10T10:05:04;99680.80;;;14.11;51.95
37066;BME280;22981;43.080;25.550;2023-04-10T10:07:31;99686.97;;;14.09;52.04
37066;BME280;22981;43.080;25.550;2023-04-10T10:10:00;99680.50;;;14.22;51.76
37066;BME280;22981;43.080;25.550;2023-04-10T10:12:34;99684.08;;;14.39;51.45
37066;BME280;22981;43.080;25.550;2023-04-10T10:17:42;99670.70;;;14.56;50.44
37066;BME280;22981;43.080;25.550;2023-04-10T10:20:10;99673.61;;;14.55;50.42
37066;BME280;22981;43.080;25.550;2023-04-10T10:22:39;99670.05;;;14.51;50.44
37066;BME280;22981;43.080;25.550;2023-04-10T10:25:08;99666.38;;;14.43;50.42
37066;BME280;22981;43.080;25.550;2023-04-10T10:27:37;99661.47;;;14.40;50.69
37066;BME280;22981;43.080;25.550;2023-04-10T10:30:06;99662.84;;;14.43;50.80
37066;BME280;22981;43.080;25.550;2023-04-10T10:32:37;99657.52;;;14.45;50.71
37066;BME280;22981;43.080;25.550;2023-04-10T10:35:06;99649.63;;;14.53;50.55
37066;BME280;22981;43.080;25.550;2023-04-10T10:37:34;99645.92;;;14.57;50.23
37066;BME280;22981;43.080;25.550;2023-04-10T10:40:28;99645.41;;;14.60;50.00
37066;BME280;22981;43.080;25.550;2023-04-10T10:45:51;99642.41;;;14.56;50.05
37066;BME280;22981;43.080;25.550;2023-04-10T10:48:18;99638.95;;;14.46;49.83
37066;BME280;22981;43.080;25.550;2023-04-10T10:50:59;99640.48;;;14.42;49.98
37066;BME280;22981;43.080;25.550;2023-04-10T10:58:53;99630.24;;;14.42;49.96
37066;BME280;22981;43.080;25.550;2023-04-10T11:01:23;99631.84;;;14.40;49.89
37066;BME280;22981;43.080;25.550;2023-04-10T11:03:51;99617.78;;;14.38;49.89
37066;BME280;22981;43.080;25.550;2023-04-10T11:06:20;99619.56;;;14.33;49.71
37066;BME280;22981;43.080;25.550;2023-04-10T11:08:50;99616.88;;;14.33;49.86
37066;BME280;22981;43.080;25.550;2023-04-10T11:11:22;99620.44;;;14.36;49.92
37066;BME280;22981;43.080;25.550;2023-04-10T11:19:05;99611.47;;;14.47;49.23
37066;BME280;22981;43.080;25.550;2023-04-10T11:21:33;99605.31;;;14.61;48.98
37066;BME280;22981;43.080;25.550;2023-04-10T11:24:03;99599.28;;;14.70;48.39
37066;BME280;22981;43.080;25.550;2023-04-10T11:26:38;99603.77;;;14.82;48.19
37066;BME280;22981;43.080;25.550;2023-04-10T11:31:54;99603.14;;;14.91;47.96
37066;BME280;22981;43.080;25.550;2023-04-10T11:34:17;99603.53;;;14.83;47.92
37066;BME280;22981;43.080;25.550;2023-04-10T11:36:44;99601.58;;;14.78;48.41
37066;BME280;22981;43.080;25.550;2023-04-10T11:39:14;99596.41;;;14.77;48.52
37066;BME280;22981;43.080;25.550;2023-04-10T11:41:48;99589.37;;;14.73;48.47
37066;BME280;22981;43.080;25.550;2023-04-10T11:46:56;99591.86;;;14.77;48.52
37066;BME280;22981;43.080;25.550;2023-04-10T11:49:25;99584.67;;;14.83;48.11
37066;BME280;22981;43.080;25.550;2023-04-10T11:51:53;99578.55;;;14.88;48.08
37066;BME280;22981;43.080;25.550;2023-04-10T11:54:22;99574.09;;;14.96;47.58
37066;BME280;22981;43.080;25.550;2023-04-10T11:57:04;99576.45;;;15.09;47.13
37066;BME280;22981;43.080;25.550;2023-04-10T11:59:34;99565.86;;;15.22;46.48
37066;BME280;22981;43.080;25.550;2023-04-10T12:02:13;99558.42;;;15.29;45.44
37066;BME280;22981;43.080;25.550;2023-04-10T12:04:41;99557.89;;;15.30;45.44
37066;BME280;22981;43.080;25.550;2023-04-10T12:07:10;99551.09;;;15.27;45.83
37066;BME280;22981;43.080;25.550;2023-04-10T12:09:37;99554.05;;;15.25;46.20
37066;BME280;22981;43.080;25.550;2023-04-10T12:12:06;99545.70;;;15.27;46.12
37066;BME280;22981;43.080;25.550;2023-04-10T12:14:36;99547.05;;;15.27;46.14
37066;BME280;22981;43.080;25.550;2023-04-10T12:17:09;99549.00;;;15.32;46.39
37066;BME280;22981;43.080;25.550;2023-04-10T12:19:40;99546.30;;;15.32;46.17
37066;BME280;22981;43.080;25.550;2023-04-10T12:22:10;99551.67;;;15.29;46.17
37066;BME280;22981;43.080;25.550;2023-04-10T12:24:49;99538.70;;;15.28;46.16
37066;BME280;22981;43.080;25.550;2023-04-10T12:27:27;99534.64;;;15.26;45.97
37066;BME280;22981;43.080;25.550;2023-04-10T12:29:57;99538.63;;;15.23;46.01
37066;BME280;22981;43.080;25.550;2023-04-10T12:32:25;99536.14;;;15.19;46.25
37066;BME280;22981;43.080;25.550;2023-04-10T12:34:57;99531.08;;;15.23;46.28
37066;BME280;22981;43.080;25.550;2023-04-10T12:40:18;99527.59;;;15.44;46.67
37066;BME280;22981;43.080;25.550;2023-04-10T12:42:46;99523.84;;;15.26;47.43
37066;BME280;22981;43.080;25.550;2023-04-10T12:45:13;99521.18;;;15.09;48.22
37066;BME280;22981;43.080;25.550;2023-04-10T12:47:48;99521.27;;;14.97;48.61
37066;BME280;22981;43.080;25.550;2023-04-10T12:50:18;99523.34;;;14.90;48.91
37066;BME280;22981;43.080;25.550;2023-04-10T12:53:05;99516.50;;;14.85;49.04
37066;BME280;22981;43.080;25.550;2023-04-10T12:55:37;99514.06;;;14.84;49.13
37066;BME280;22981;43.080;25.550;2023-04-10T12:58:18;99510.48;;;14.78;49.00
37066;BME280;22981;43.080;25.550;2023-04-10T13:00:46;99509.36;;;14.76;49.15
37066;BME280;22981;43.080;25.550;2023-04-10T13:03:14;99503.97;;;14.76;48.99
37066;BME280;22981;43.080;25.550;2023-04-10T13:05:43;99504.83;;;14.80;48.93
37066;BME280;22981;43.080;25.550;2023-04-10T13:08:11;99491.76;;;14.88;48.92
37066;BME280;22981;43.080;25.550;2023-04-10T13:10:38;99490.27;;;14.97;48.62
37066;BME280;22981;43.080;25.550;2023-04-10T13:13:07;99483.58;;;15.00;48.12
37066;BME280;22981;43.080;25.550;2023-04-10T13:15:37;99484.50;;;15.08;48.15
37066;BME280;22981;43.080;25.550;2023-04-10T13:18:04;99487.59;;;15.17;47.83
37066;BME280;22981;43.080;25.550;2023-04-10T13:20:34;99486.31;;;15.24;47.78
37066;BME280;22981;43.080;25.550;2023-04-10T13:23:02;99480.49;;;15.33;47.61
37066;BME280;22981;43.080;25.550;2023-04-10T13:25:31;99476.38;;;15.47;47.18
37066;BME280;22981;43.080;25.550;2023-04-10T13:28:00;99464.84;;;15.54;46.24
37066;BME280;22981;43.080;25.550;2023-04-10T13:30:28;99457.34;;;15.59;45.95
37066;BME280;22981;43.080;25.550;2023-04-10T13:32:56;99463.67;;;15.67;46.04
37066;BME280;22981;43.080;25.550;2023-04-10T13:35:24;99467.00;;;15.74;45.85
37066;BME280;22981;43.080;25.550;2023-04-10T13:37:52;99463.75;;;15.72;45.77
37066;BME280;22981;43.080;25.550;2023-04-10T13:40:20;99463.53;;;15.57;46.12